Time;durP1;ratioP1;P1;durP2;ratioP2;P2;SDS_P1;SDS_P2;PMS_P1;PMS_P2;Temp;Humidity;BMP_temperature;BMP_pressure;BME280_temperature;BME280_humidity;BME280_pressure;Samples;Min_cycle;Max_cycle;Signal;HPM_P1;HPM_P2
2022/09/11 00:01:28;;;;;;;1.70;1.60;;;17.50;99.90;;;19.00;81.20;100607.59;4989303;28;20642;-68
2022/09/11 00:03:55;;;;;;;1.77;1.67;;;17.50;99.90;;;19.00;81.45;100603.16;4990589;28;20627;-68
2022/09/11 00:06:23;;;;;;;2.00;1.93;;;17.50;99.90;;;18.94;81.63;100602.97;4990356;28;20619;-68
2022/09/11 00:09:00;;;;;;;2.10;1.90;;;17.50;99.90;;;19.05;80.95;100606.13;4991144;28;21191;-68
2022/09/11 00:11:39;;;;;;;1.90;1.80;;;17.50;99.90;;;18.92;81.63;100603.16;4974346;28;20756;-68
2022/09/11 00:14:09;;;;;;;1.93;1.83;;;17.50;99.90;;;19.05;81.06;100602.66;4991801;28;20709;-68
2022/09/11 00:16:40;;;;;;;4.00;1.73;;;17.50;99.90;;;19.05;81.48;100610.59;4989917;28;21158;-69
2022/09/11 00:19:14;;;;;;;2.63;1.77;;;17.50;99.90;;;19.08;81.15;100611.06;4990268;28;21101;-68
2022/09/11 00:21:41;;;;;;;1.57;1.50;;;17.50;99.90;;;18.99;81.45;100617.38;4990075;28;20697;-68
2022/09/11 00:24:09;;;;;;;2.47;2.33;;;17.50;99.90;;;19.07;80.68;100621.84;5002875;28;21288;-68
2022/09/11 00:26:41;;;;;;;2.53;1.63;;;17.50;99.90;;;18.99;81.00;100616.53;5010066;28;20669;-69
2022/09/11 00:29:09;;;;;;;1.63;1.53;;;17.50;99.90;;;19.05;80.76;100627.28;5011986;28;20668;-69
2022/09/11 00:31:36;;;;;;;2.27;1.93;;;17.50;99.90;;;19.04;80.80;100619.50;5003281;28;20662;-69
2022/09/11 00:34:03;;;;;;;2.13;1.80;;;17.60;99.90;;;19.02;81.10;100618.84;4997977;28;20634;-68
2022/09/11 00:36:30;;;;;;;1.60;1.53;;;17.50;99.90;;;19.02;81.28;100613.56;4989739;28;20669;-68
2022/09/11 00:38:58;;;;;;;2.30;2.10;;;17.50;99.90;;;19.04;80.74;100616.84;4990216;28;20634;-69
2022/09/11 00:41:30;;;;;;;2.23;2.00;;;17.50;99.90;;;19.05;80.75;100621.16;4994752;28;20633;-68
2022/09/11 00:44:02;;;;;;;2.00;1.90;;;17.50;99.90;;;18.92;81.59;100623.47;5012687;28;20663;-68
2022/09/11 00:46:48;;;;;;;2.90;1.90;;;17.50;99.90;;;18.88;81.37;100622.97;5009486;28;20649;-68
2022/09/11 00:49:43;;;;;;;2.20;2.10;;;17.50;99.90;;;18.93;81.10;100617.22;4996873;28;20634;-69
2022/09/11 00:52:33;;;;;;;2.40;2.30;;;17.50;99.90;;;18.97;80.96;100623.81;4991424;28;20659;-68
2022/09/11 00:55:15;;;;;;;1.80;1.70;;;17.50;99.90;;;19.06;80.52;100628.13;4993371;28;20610;-68
2022/09/11 00:57:48;;;;;;;3.57;1.60;;;17.50;99.90;;;19.09;80.13;100622.50;4993118;28;20701;-68
2022/09/11 01:00:16;;;;;;;3.80;1.67;;;17.60;99.90;;;19.00;80.68;100631.41;4993969;28;20672;-69
2022/09/11 01:02:47;;;;;;;3.57;1.80;;;17.50;99.90;;;19.02;80.80;100634.72;5002951;28;21266;-68
2022/09/11 01:05:18;;;;;;;1.80;1.70;;;17.60;99.90;;;18.79;81.64;100631.03;5014126;28;20625;-68
2022/09/11 01:07:46;;;;;;;2.37;2.17;;;17.50;99.90;;;18.77;82.42;100628.56;5003876;28;20637;-68
2022/09/11 01:10:13;;;;;;;1.90;1.80;;;17.50;99.90;;;18.99;81.32;100627.13;4992829;28;20668;-68
2022/09/11 01:13:39;;;;;;;2.07;1.87;;;17.50;99.90;;;18.97;81.14;100640.50;4993001;28;21055;-68
2022/09/11 01:16:19;;;;;;;1.70;1.60;;;17.50;99.90;;;18.83;81.71;100637.66;4985724;28;20627;-68
2022/09/11 01:18:57;;;;;;;1.80;1.70;;;17.40;99.90;;;18.85;81.72;100641.81;4993744;28;20690;-68
2022/09/11 01:22:06;;;;;;;2.00;1.90;;;17.40;99.90;;;18.87;81.50;100644.31;5013277;28;20621;-68
2022/09/11 01:25:07;;;;;;;3.13;1.67;;;17.50;99.90;;;18.75;82.87;100651.69;5011695;28;20777;-68
2022/09/11 01:27:44;;;;;;;1.47;1.47;;;17.50;99.90;;;18.78;82.20;100647.91;4992691;28;20986;-68
2022/09/11 01:30:40;;;;;;;1.57;1.47;;;17.40;99.90;;;18.87;82.18;100654.88;4991875;28;20626;-69
2022/09/11 01:34:07;;;;;;;2.13;1.77;;;17.40;99.90;;;18.84;82.37;100653.38;4993622;28;20661;-68
2022/09/11 01:37:11;;;;;;;2.20;2.10;;;17.40;99.90;;;18.32;84.65;100659.78;5017345;28;20613;-68
2022/09/11 01:39:50;;;;;;;2.07;1.97;;;17.40;99.90;;;18.82;82.38;100660.66;5012355;28;20638;-69
2022/09/11 01:42:21;;;;;;;2.20;2.10;;;17.40;99.90;;;18.91;82.45;100645.63;5011755;28;20629;-69
2022/09/11 01:44:56;;;;;;;2.53;2.00;;;17.40;99.90;;;18.88;82.81;100656.53;5011949;28;20614;-68
2022/09/11 01:47:24;;;;;;;5.67;2.47;;;17.40;99.90;;;18.93;82.12;100654.22;5011931;28;20640;-68
2022/09/11 01:50:01;;;;;;;3.10;1.63;;;17.50;99.90;;;18.90;81.94;100654.53;5008359;28;20725;-68
2022/09/11 01:52:35;;;;;;;2.37;2.17;;;17.40;99.90;;;19.00;82.12;100641.97;5002795;28;20668;-69
2022/09/11 01:55:29;;;;;;;2.43;2.33;;;17.40;99.90;;;18.95;82.29;100646.94;5010956;28;20610;-68
2022/09/11 01:58:05;;;;;;;2.30;2.00;;;17.50;99.90;;;18.91;82.28;100648.28;5011360;28;20661;-68
2022/09/11 02:00:35;;;;;;;2.40;2.20;;;17.50;99.90;;;18.95;82.18;100652.25;5011572;28;20617;-68
2022/09/11 02:03:13;;;;;;;4.33;2.30;;;17.40;99.90;;;18.99;81.83;100645.63;5000579;28;20665;-67
2022/09/11 02:05:55;;;;;;;2.10;2.00;;;17.50;99.90;;;18.94;82.49;100653.22;5012349;28;21033;-68
2022/09/11 02:08:49;;;;;;;6.43;2.13;;;17.40;99.90;;;18.91;82.46;100656.19;5010567;28;20703;-69
2022/09/11 02:11:20;;;;;;;2.20;1.70;;;17.40;99.90;;;18.97;81.81;100658.19;5009634;28;20649;-68
2022/09/11 02:14:14;;;;;;;2.03;1.93;;;17.40;99.90;;;18.96;81.80;100670.56;5009491;28;20684;-68
2022/09/11 02:16:51;;;;;;;2.30;2.20;;;17.30;99.90;;;18.84;82.20;100661.31;5000270;28;20638;-69
2022/09/11 02:19:28;;;;;;;2.60;2.43;;;17.30;99.90;;;18.89;82.18;100648.41;4997130;28;21067;-68
2022/09/11 02:21:58;;;;;;;2.53;2.33;;;17.40;99.90;;;18.73;82.93;100656.31;5010537;28;20609;-69
2022/09/11 02:24:26;;;;;;;2.50;2.30;;;17.30;99.90;;;18.83;82.62;100662.28;5004306;28;20622;-69
2022/09/11 02:27:00;;;;;;;2.13;2.03;;;17.30;99.90;;;18.76;82.58;100652.53;5010886;28;20610;-68
2022/09/11 02:29:27;;;;;;;3.27;3.00;;;17.30;99.90;;;18.86;82.13;100658.50;4999222;28;20669;-68
2022/09/11 02:31:55;;;;;;;2.17;1.97;;;17.30;99.90;;;18.78;82.49;100661.13;5017364;28;21287;-68
2022/09/11 02:34:32;;;;;;;2.17;2.07;;;17.20;99.90;;;18.78;82.62;100666.41;5010834;28;20633;-68
2022/09/11 02:37:02;;;;;;;2.43;2.23;;;17.20;99.90;;;18.73;82.55;100663.41;5011581;28;20621;-68
2022/09/11 02:39:47;;;;;;;2.73;2.40;;;17.20;99.90;;;18.78;82.02;100667.25;4994638;28;20709;-69
2022/09/11 02:42:34;;;;;;;3.10;2.80;;;17.20;99.90;;;18.73;82.35;100676.63;4992688;28;20726;-68
2022/09/11 02:45:14;;;;;;;2.80;2.53;;;17.20;99.90;;;18.75;82.12;100677.31;4991364;28;20642;-68
2022/09/11 02:48:01;;;;;;;2.60;2.40;;;17.20;99.90;;;18.79;81.89;100690.03;5002915;28;20625;-68
2022/09/11 02:50:52;;;;;;;2.83;2.50;;;17.20;99.90;;;18.85;81.38;100694.69;5009397;28;20637;-68
2022/09/11 02:53:45;;;;;;;4.00;2.10;;;17.30;99.90;;;18.81;81.66;100697.78;5010801;28;20657;-68
2022/09/11 02:56:25;;;;;;;2.23;2.13;;;17.30;99.90;;;18.72;81.75;100696.94;5011609;28;20629;-68
2022/09/11 02:59:04;;;;;;;2.77;2.50;;;17.20;99.90;;;18.55;82.48;100698.72;5009994;28;20692;-69
2022/09/11 03:01:46;;;;;;;1.80;1.70;;;17.20;99.90;;;18.67;82.06;100698.44;4990740;28;20623;-68
2022/09/11 03:04:14;;;;;;;2.73;2.53;;;17.20;99.90;;;18.58;82.30;100694.94;4991217;28;20630;-68
2022/09/11 03:06:42;;;;;;;3.03;2.83;;;17.20;99.90;;;18.66;81.82;100702.03;4992878;28;21212;-68
2022/09/11 03:09:09;;;;;;;2.33;2.20;;;17.20;99.90;;;18.65;82.23;100697.75;4989930;28;20638;-68
2022/09/11 03:11:39;;;;;;;2.47;2.27;;;17.10;99.90;;;18.61;82.28;100691.16;4993509;28;20696;-68
2022/09/11 03:14:14;;;;;;;3.30;3.10;;;17.10;99.90;;;18.68;81.81;100698.25;5008315;28;20617;-68
2022/09/11 03:16:42;;;;;;;2.90;2.70;;;17.20;99.90;;;18.79;81.36;100690.03;4999582;28;20737;-68
2022/09/11 03:19:10;;;;;;;2.90;2.77;;;17.20;99.90;;;18.78;81.27;100691.03;4998963;28;20646;-68
2022/09/11 03:21:37;;;;;;;3.00;2.80;;;17.20;99.90;;;18.80;81.30;100697.00;4996788;28;20637;-68
2022/09/11 03:24:05;;;;;;;2.70;2.50;;;17.20;99.90;;;18.75;81.48;100701.91;5011144;28;20977;-68
2022/09/11 03:26:32;;;;;;;15.80;2.80;;;17.20;99.90;;;18.81;81.15;100692.50;5010604;28;20684;-68
2022/09/11 03:28:59;;;;;;;2.13;2.03;;;17.20;99.90;;;18.81;81.17;100706.56;5009171;28;20629;-69
2022/09/11 03:31:27;;;;;;;5.67;2.63;;;17.20;99.90;;;18.83;80.94;100701.09;5008988;28;20638;-68
2022/09/11 03:33:54;;;;;;;4.70;2.17;;;17.20;99.90;;;18.66;81.57;100704.69;5011255;28;20723;-68
2022/09/11 03:36:21;;;;;;;3.00;2.70;;;17.20;99.90;;;18.63;81.90;100700.56;5008047;28;20609;-68
2022/09/11 03:38:48;;;;;;;3.30;3.00;;;17.10;99.90;;;18.54;82.43;100710.28;4989822;28;20993;-68
2022/09/11 03:41:15;;;;;;;2.93;2.60;;;17.00;99.90;;;18.61;82.17;100701.72;4991177;28;20625;-68
2022/09/11 03:43:42;;;;;;;2.80;2.60;;;17.00;99.90;;;18.68;81.67;100705.34;4990292;28;20627;-69
2022/09/11 03:46:10;;;;;;;2.93;2.73;;;17.10;99.90;;;18.68;81.58;100714.13;4990135;28;20649;-69
2022/09/11 03:48:36;;;;;;;4.10;2.70;;;17.10;99.90;;;18.66;81.66;100716.09;4990751;28;21013;-68
2022/09/11 03:51:04;;;;;;;2.77;2.57;;;17.10;99.90;;;18.69;81.28;100715.78;5008182;28;20641;-69
2022/09/11 03:53:32;;;;;;;2.37;2.27;;;17.10;99.90;;;18.65;81.21;100719.75;5008953;28;21024;-68
2022/09/11 03:55:59;;;;;;;3.37;2.13;;;17.10;99.90;;;18.70;81.07;100711.34;5009062;28;20640;-69
2022/09/11 03:58:26;;;;;;;3.10;2.90;;;17.10;99.90;;;18.73;80.90;100721.56;5010593;28;20633;-69
2022/09/11 04:00:55;;;;;;;2.60;2.40;;;17.10;99.90;;;18.74;81.20;100723.25;4995567;28;20635;-68
2022/09/11 04:03:22;;;;;;;2.80;2.60;;;17.10;99.90;;;18.59;81.51;100725.66;5009757;28;20622;-68
2022/09/11 04:05:59;;;;;;;4.20;3.10;;;17.10;99.90;;;18.62;81.40;100727.13;5010323;28;20598;-69
2022/09/11 04:08:26;;;;;;;2.50;2.40;;;17.10;99.90;;;18.62;81.28;100735.06;5008774;28;20679;-69
2022/09/11 04:11:01;;;;;;;4.20;2.57;;;17.00;99.90;;;18.65;81.43;100745.34;5010322;28;21242;-69
2022/09/11 04:13:31;;;;;;;2.63;2.43;;;17.00;99.90;;;18.56;81.90;100741.84;5008606;28;20695;-69
2022/09/11 04:16:08;;;;;;;2.97;2.77;;;17.00;99.90;;;18.56;82.19;100742.66;5012222;28;20626;-68
2022/09/11 04:18:38;;;;;;;2.90;2.70;;;17.00;99.90;;;18.48;82.83;100750.53;4997669;28;20649;-68
2022/09/11 04:21:08;;;;;;;3.27;3.03;;;17.00;99.90;;;18.50;82.05;100748.59;5015277;28;21169;-69
2022/09/11 04:23:35;;;;;;;3.90;3.20;;;17.00;99.90;;;18.54;81.63;100743.81;5012662;28;21180;-68
2022/09/11 04:26:03;;;;;;;2.77;2.57;;;17.00;99.90;;;18.58;81.66;100751.25;4994757;28;20646;-68
2022/09/11 04:28:30;;;;;;;2.97;2.73;;;17.00;99.90;;;18.43;82.03;100750.16;4993276;28;21225;-69
2022/09/11 04:31:03;;;;;;;3.03;2.83;;;16.90;99.90;;;18.50;82.40;100758.31;5010215;28;20642;-69
2022/09/11 04:33:30;;;;;;;3.50;3.00;;;16.90;99.90;;;18.37;82.89;100756.09;5009748;28;20667;-69
2022/09/11 04:36:03;;;;;;;5.97;2.60;;;16.90;99.90;;;18.43;82.60;100752.81;4994401;28;20615;-67
2022/09/11 04:38:29;;;;;;;3.07;2.77;;;16.80;99.90;;;18.42;82.73;100751.13;4994620;28;20681;-68
2022/09/11 04:41:00;;;;;;;3.17;2.97;;;16.80;99.90;;;17.71;86.44;100749.69;4995631;28;20621;-69
2022/09/11 04:43:30;;;;;;;3.30;2.80;;;16.80;99.90;;;17.82;87.04;100750.25;5004887;28;21044;-68
2022/09/11 04:46:13;;;;;;;3.33;2.87;;;16.80;99.90;;;18.23;84.20;100754.00;5014487;28;20618;-69
2022/09/11 04:49:03;;;;;;;3.47;3.17;;;16.80;99.90;;;18.14;84.30;100748.84;5001369;28;21088;-69
2022/09/11 04:51:33;;;;;;;3.47;3.17;;;16.80;99.90;;;18.02;85.04;100750.91;4994122;28;20649;-69
2022/09/11 04:54:01;;;;;;;5.33;2.73;;;16.80;99.90;;;18.03;84.88;100749.94;4986573;28;20670;-70
2022/09/11 04:56:36;;;;;;;3.13;2.83;;;16.80;99.90;;;18.03;84.50;100739.38;4997428;28;21017;-69
2022/09/11 04:59:12;;;;;;;4.20;3.20;;;16.80;99.90;;;18.13;84.47;100755.94;5013915;28;20645;-69
2022/09/11 05:01:39;;;;;;;3.23;3.03;;;16.80;99.90;;;18.07;84.85;100761.84;5007460;28;20665;-69
2022/09/11 05:04:07;;;;;;;2.70;2.60;;;16.80;99.90;;;17.84;86.19;100763.31;4993156;28;20627;-69
2022/09/11 05:06:36;;;;;;;3.90;3.37;;;16.70;99.90;;;17.91;86.05;100768.81;5003163;28;21005;-70
2022/09/11 05:09:07;;;;;;;3.23;2.93;;;16.70;99.90;;;18.07;84.91;100768.94;5013701;28;21052;-69
2022/09/11 05:11:35;;;;;;;3.63;3.27;;;16.80;99.90;;;18.14;84.61;100768.16;4999572;28;20989;-68
2022/09/11 05:14:02;;;;;;;5.97;3.30;;;16.80;99.90;;;18.23;84.22;100777.78;5012172;28;20661;-68
2022/09/11 05:16:32;;;;;;;3.10;2.90;;;16.90;99.90;;;18.18;84.37;100782.72;5008364;28;20697;-69
2022/09/11 05:19:02;;;;;;;3.67;3.33;;;16.90;99.90;;;18.12;84.64;100785.94;5023363;23;21031;-66
2022/09/11 05:21:30;;;;;;;3.00;2.50;;;16.90;99.90;;;18.04;85.21;100785.91;5032347;28;20636;-66
2022/09/11 05:24:00;;;;;;;3.70;3.40;;;16.90;99.90;;;17.96;85.84;100799.03;5025086;28;21231;-66
2022/09/11 05:26:33;;;;;;;3.20;2.73;;;16.90;99.90;;;17.92;86.26;100792.41;5028447;28;21477;-65
2022/09/11 05:29:07;;;;;;;3.73;3.17;;;16.80;99.90;;;17.91;86.49;100803.94;5021608;28;20672;-65
2022/09/11 05:31:35;;;;;;;3.87;3.20;;;16.80;99.90;;;18.00;85.63;100803.03;5013549;28;20636;-65
2022/09/11 05:34:04;;;;;;;3.87;3.50;;;16.80;99.90;;;17.94;86.25;100808.09;5014082;28;20732;-65
2022/09/11 05:36:31;;;;;;;2.97;2.77;;;16.80;99.90;;;17.76;87.10;100805.47;5010434;28;20866;-65
2022/09/11 05:38:58;;;;;;;3.77;3.40;;;16.80;99.90;;;17.79;86.92;100806.00;5012635;28;21329;-65
2022/09/11 05:41:25;;;;;;;4.33;2.87;;;16.80;99.90;;;17.86;87.02;100811.50;5012875;28;20621;-67
2022/09/11 05:43:53;;;;;;;5.10;3.13;;;16.80;99.90;;;17.85;87.25;100812.47;5008435;28;20634;-63
2022/09/11 05:46:21;;;;;;;5.73;3.07;;;16.80;99.90;;;17.86;86.84;100810.69;5012647;28;21169;-64
2022/09/11 05:48:48;;;;;;;4.67;3.00;;;16.80;99.90;;;17.97;86.41;100819.19;5012812;28;20645;-65
2022/09/11 05:51:20;;;;;;;5.70;3.50;;;16.80;99.90;;;17.99;86.18;100814.59;4998558;28;20708;-65
2022/09/11 05:53:51;;;;;;;3.60;3.13;;;16.80;99.90;;;18.07;86.10;100824.38;4993574;28;20800;-64
2022/09/11 05:56:22;;;;;;;4.30;3.37;;;16.90;99.90;;;17.93;86.79;100827.56;4993707;28;20622;-65
2022/09/11 05:58:53;;;;;;;3.90;3.60;;;16.90;99.90;;;18.11;85.87;100838.91;4992695;28;20709;-65
2022/09/11 06:01:24;;;;;;;3.67;3.30;;;17.00;99.90;;;18.26;85.04;100830.31;4993081;28;20638;-65
2022/09/11 06:03:52;;;;;;;3.97;3.60;;;17.10;99.90;;;18.56;83.63;100837.78;4998022;28;20633;-64
2022/09/11 06:06:22;;;;;;;4.40;3.97;;;17.30;99.90;;;19.33;81.13;100842.91;5012771;28;21068;-65
2022/09/11 06:08:51;;;;;;;2.93;2.73;;;17.70;99.90;;;20.27;76.19;100832.78;5012359;28;21257;-65
2022/09/11 06:11:20;;;;;;;6.70;3.07;;;18.30;99.90;;;21.00;72.65;100851.97;5010576;28;20680;-66
2022/09/11 06:13:47;;;;;;;3.00;2.80;;;18.90;99.90;;;21.32;71.09;100848.34;4993748;28;20667;-66
2022/09/11 06:16:20;;;;;;;3.63;3.30;;;19.30;99.90;;;21.81;68.89;100865.63;4992637;28;20714;-66
2022/09/11 06:18:49;;;;;;;4.37;3.63;;;19.80;99.90;;;22.42;66.67;100873.44;4993034;28;21280;-65
2022/09/11 06:21:19;;;;;;;3.40;3.20;;;20.20;99.90;;;23.14;63.85;100865.72;4992501;28;20614;-65
2022/09/11 06:23:48;;;;;;;4.90;3.20;;;20.80;99.90;;;23.14;62.93;100879.84;5011372;28;20744;-66
2022/09/11 06:26:20;;;;;;;5.10;3.57;;;21.10;99.90;;;22.84;64.01;100872.91;5012501;28;20705;-65
2022/09/11 06:28:47;;;;;;;3.93;3.53;;;21.10;99.90;;;22.64;64.93;100871.78;5012938;28;20780;-65
2022/09/11 06:31:18;;;;;;;3.70;3.40;;;21.00;99.90;;;22.67;64.83;100868.75;4997659;28;20677;-66
2022/09/11 06:33:46;;;;;;;3.30;3.00;;;21.00;99.90;;;22.45;65.48;100871.44;4992502;28;20712;-66
2022/09/11 06:36:18;;;;;;;3.27;2.97;;;20.90;99.90;;;22.23;66.24;100875.81;4992508;28;20643;-66
2022/09/11 06:38:49;;;;;;;3.80;3.17;;;20.70;99.90;;;22.14;66.40;100876.88;4992517;28;20693;-66
2022/09/11 06:41:16;;;;;;;3.73;3.43;;;20.60;99.90;;;22.54;65.60;100876.50;4990378;28;20626;-66
2022/09/11 06:43:43;;;;;;;3.07;2.80;;;20.80;99.90;;;23.04;63.72;100873.97;4992591;28;21170;-66
2022/09/11 06:46:14;;;;;;;3.63;3.33;;;21.00;99.90;;;24.27;59.68;100878.22;4992475;28;20685;-66
2022/09/11 06:48:47;;;;;;;8.97;2.90;;;21.70;99.90;;;25.74;55.45;100872.44;4993216;28;20642;-65
2022/09/11 06:51:17;;;;;;;3.27;2.97;;;22.60;99.90;;;27.10;52.07;100883.31;4993617;28;20615;-66
2022/09/11 06:53:46;;;;;;;2.97;2.70;;;23.60;99.90;;;28.24;48.79;100882.25;5009761;28;20665;-66
2022/09/11 06:56:17;;;;;;;2.93;2.73;;;24.70;99.90;;;29.34;45.95;100881.38;5011090;28;21177;-66
2022/09/11 06:58:44;;;;;;;3.27;2.97;;;25.60;99.90;;;30.49;43.94;100887.09;5007661;28;20645;-66
2022/09/11 07:01:17;;;;;;;3.90;3.60;;;26.50;99.90;;;31.53;41.39;100883.41;5005495;28;21193;-66
2022/09/11 07:03:49;;;;;;;4.47;3.53;;;27.50;99.90;;;32.37;39.66;100885.13;4983918;28;20980;-66
2022/09/11 07:06:19;;;;;;;2.93;2.83;;;28.30;99.90;;;33.03;38.36;100884.22;5007723;28;21026;-66
2022/09/11 07:08:59;;;;;;;3.53;3.23;;;28.90;97.10;;;33.40;37.05;100874.38;5010928;28;20688;-66
2022/09/11 07:11:31;;;;;;;3.33;2.90;;;29.50;95.40;;;33.95;36.39;100881.44;5012571;28;20712;-66
2022/09/11 07:14:00;;;;;;;3.60;3.30;;;30.10;94.10;;;34.15;35.78;100874.34;5008366;28;20662;-66
2022/09/11 07:16:27;;;;;;;3.90;3.60;;;30.40;92.20;;;34.37;35.29;100869.59;5005448;28;20683;-64
2022/09/11 07:18:54;;;;;;;4.47;3.77;;;30.70;91.50;;;34.64;34.30;100871.44;5010118;28;20676;-64
2022/09/11 07:21:24;;;;;;;4.50;3.50;;;30.90;90.10;;;34.82;34.39;100873.72;4996419;28;20714;-64
2022/09/11 07:23:55;;;;;;;4.70;3.47;;;31.10;89.10;;;35.08;34.22;100876.28;5002268;28;20621;-64
2022/09/11 07:26:25;;;;;;;3.90;3.60;;;31.50;87.50;;;35.11;33.51;100880.34;4993118;28;20661;-64
2022/09/11 07:28:54;;;;;;;4.07;3.77;;;31.60;84.60;;;34.97;33.96;100874.56;4990438;28;20634;-65
2022/09/11 07:31:28;;;;;;;4.13;3.83;;;31.70;83.30;;;33.53;35.42;100865.91;4989385;28;20639;-66
2022/09/11 07:33:56;;;;;;;4.57;4.20;;;31.00;82.60;;;31.94;38.16;100869.63;4990042;28;20717;-64
2022/09/11 07:36:29;;;;;;;3.73;3.50;;;30.00;83.80;;;30.57;40.54;100867.88;5009955;28;21232;-65
2022/09/11 07:39:00;;;;;;;4.30;3.90;;;28.80;86.60;;;29.56;42.53;100869.09;5002510;28;21017;-66
2022/09/11 07:41:27;;;;;;;4.27;3.97;;;27.90;89.40;;;28.97;44.55;100869.78;4991979;28;21128;-64
2022/09/11 07:43:59;;;;;;;4.47;3.77;;;27.30;91.20;;;29.48;43.29;100875.59;4990875;28;20712;-64
2022/09/11 07:46:27;;;;;;;4.40;4.10;;;27.20;91.70;;;29.77;42.58;100876.66;4990082;28;20614;-65
2022/09/11 07:48:54;;;;;;;4.30;3.90;;;27.30;92.10;;;29.64;43.30;100887.56;4990805;28;20635;-64
2022/09/11 07:51:22;;;;;;;4.67;4.17;;;27.30;92.20;;;29.64;43.26;100879.50;5006043;28;20611;-65
2022/09/11 07:53:51;;;;;;;4.20;3.80;;;27.40;92.30;;;30.58;41.52;100880.28;5003031;28;20666;-65
2022/09/11 07:56:22;;;;;;;4.70;4.30;;;27.90;91.90;;;32.16;38.53;100888.56;4988599;28;20704;-66
2022/09/11 07:58:51;;;;;;;4.87;4.47;;;28.80;91.10;;;33.74;35.75;100890.44;4991439;28;20634;-65
2022/09/11 08:01:29;;;;;;;6.00;5.40;;;29.90;89.50;;;33.59;35.20;100894.63;4992174;28;20619;-65
2022/09/11 08:04:01;;;;;;;7.37;5.03;;;30.20;95.80;;;32.84;36.16;100902.59;4999213;28;20637;-65
2022/09/11 08:06:31;;;;;;;6.73;5.13;;;29.80;88.80;;;31.78;37.66;100900.03;5009502;28;20614;-63
2022/09/11 08:09:13;;;;;;;5.00;4.60;;;29.00;86.50;;;31.02;39.46;100896.91;5002869;28;20700;-65
2022/09/11 08:11:47;;;;;;;7.50;6.00;;;28.30;88.60;;;30.67;40.59;100899.59;5008434;28;21200;-66
2022/09/11 08:14:16;;;;;;;4.13;3.80;;;27.90;90.20;;;30.56;40.88;100900.44;5008379;28;21054;-66
2022/09/11 08:16:44;;;;;;;5.03;4.53;;;27.70;90.80;;;30.35;41.59;100893.75;5003295;28;20614;-66
2022/09/11 08:19:17;;;;;;;5.07;4.40;;;27.50;91.40;;;29.88;42.61;100900.06;5008600;28;20695;-66
2022/09/11 08:21:48;;;;;;;5.00;4.60;;;27.30;96.70;;;29.86;42.50;100900.28;5010480;28;20980;-66
2022/09/11 08:24:16;;;;;;;5.40;3.97;;;;;;;30.26;41.52;100897.78;5001346;28;20623;-63
2022/09/11 08:26:43;;;;;;;4.30;3.90;;;27.20;99.90;;;30.34;41.12;100894.81;4990625;28;20689;-64
2022/09/11 08:29:15;;;;;;;4.00;3.57;;;27.30;98.70;;;29.67;41.89;100901.38;5007999;28;21260;-66
2022/09/11 08:31:41;;;;;;;4.83;4.40;;;27.10;97.70;;;28.93;44.11;100906.22;5000958;28;20689;-65
2022/09/11 08:34:09;;;;;;;5.13;4.20;;;26.70;96.70;;;28.35;44.58;100901.16;5007556;28;20658;-65
2022/09/11 08:36:36;;;;;;;5.40;4.80;;;26.20;96.20;;;27.98;45.80;100907.47;5003331;28;20635;-65
2022/09/11 08:39:04;;;;;;;5.33;4.83;;;25.80;93.90;;;28.25;45.67;100910.75;4989239;28;20657;-67
2022/09/11 08:41:59;;;;;;;4.97;4.40;;;25.70;94.40;;;32.34;37.95;100926.16;4990425;28;20634;-67
2022/09/11 08:44:48;;;;;;;4.90;4.30;;;27.40;93.10;;;36.20;31.55;100927.03;5011429;28;20672;-66
2022/09/11 08:47:23;;;;;;;3.97;3.67;;;29.80;90.10;;;38.26;28.48;100928.13;4998203;28;21186;-66
2022/09/11 08:50:07;;;;;;;4.40;3.87;;;31.70;84.20;;;38.39;27.88;100927.47;5025282;28;20637;-67
2022/09/11 08:52:36;;;;;;;4.00;3.70;;;32.70;80.20;;;38.84;27.48;100931.66;5017997;28;20667;-66
2022/09/11 08:55:05;;;;;;;3.80;3.50;;;;;;;40.34;25.88;100936.09;4972894;28;20689;-66
2022/09/11 08:58:02;;;;;;;4.00;3.70;;;34.40;73.20;;;41.99;23.81;100933.00;4991211;28;20630;-66
2022/09/11 09:00:53;;;;;;;3.67;3.37;;;35.40;69.90;;;44.52;21.30;100939.75;4992210;28;20618;-67
2022/09/11 09:03:44;;;;;;;4.10;3.80;;;37.00;66.20;;;44.48;21.25;100929.75;5012809;28;20616;-64
2022/09/11 09:06:27;;;;;;;3.47;3.23;;;37.90;62.60;;;41.59;23.70;100929.28;5013220;28;20655;-67
2022/09/11 09:09:26;;;;;;;4.13;3.80;;;36.70;62.10;;;40.95;24.60;100922.94;5014062;28;20633;-68
2022/09/11 09:12:46;;;;;;;4.63;4.23;;;36.00;62.50;;;37.72;27.86;100920.03;4990715;28;20640;-68
2022/09/11 09:15:42;;;;;;;4.73;4.33;;;34.70;63.50;;;34.82;32.45;100911.66;5012721;28;20661;-68
2022/09/11 09:18:22;;;;;;;3.90;3.60;;;32.60;66.40;;;33.41;34.52;100915.78;5013767;28;20648;-67
2022/09/11 09:21:35;;;;;;;5.80;5.10;;;31.20;68.90;;;33.06;35.16;100918.88;5012327;28;20629;-68
2022/09/11 09:24:18;;;;;;;7.20;4.60;;;30.30;71.50;;;36.45;29.66;100927.03;5004744;28;20684;-66
2022/09/11 09:26:55;;;;;;;4.73;4.33;;;31.60;70.20;;;40.70;25.05;100931.63;4993802;28;20680;-67
2022/09/11 09:29:29;;;;;;;4.63;4.23;;;33.80;67.10;;;39.88;25.40;100927.03;4991851;28;20732;-67
2022/09/11 09:32:06;;;;;;;5.10;4.70;;;34.40;64.60;;;37.82;27.48;100928.16;4993622;28;20613;-66
2022/09/11 09:34:37;;;;;;;4.77;4.37;;;33.80;64.70;;;38.04;28.05;100925.00;5005090;28;20739;-67
2022/09/11 09:37:14;;;;;;;4.43;3.63;;;33.40;65.90;;;37.34;27.79;100926.25;5010947;28;21251;-68
2022/09/11 09:39:42;;;;;;;3.90;3.60;;;33.10;64.80;;;38.91;27.12;100929.38;5011498;28;20653;-68
2022/09/11 09:42:23;;;;;;;3.07;2.87;;;33.70;65.80;;;39.76;25.75;100926.69;5012699;28;20610;-66
2022/09/11 09:45:18;;;;;;;4.30;3.90;;;34.40;64.30;;;36.87;28.85;100925.84;4997984;28;20661;-66
2022/09/11 09:47:47;;;;;;;4.40;4.00;;;33.70;64.00;;;35.17;31.37;100919.16;5011763;28;20621;-67
2022/09/11 09:50:24;;;;;;;5.23;4.47;;;32.40;65.80;;;36.41;30.23;100931.38;5000397;28;20646;-69
2022/09/11 09:53:17;;;;;;;4.33;4.00;;;32.20;67.50;;;40.01;25.53;100929.84;5008937;28;20622;-67
2022/09/11 09:55:46;;;;;;;4.37;3.97;;;33.80;65.70;;;42.90;22.47;100936.94;4990735;28;20658;-66
2022/09/11 09:58:13;;;;;;;3.70;3.40;;;35.70;62.50;;;43.10;22.16;100936.34;4992586;28;20713;-67
2022/09/11 10:00:41;;;;;;;3.47;3.20;;;36.50;61.30;;;43.00;22.11;100942.94;4992717;28;21256;-67
2022/09/11 10:03:19;;;;;;;3.90;3.60;;;36.80;59.90;;;41.88;22.98;100932.44;4993951;28;21182;-66
2022/09/11 10:05:49;;;;;;;4.60;4.27;;;36.60;59.40;;;43.19;21.79;100932.47;5003693;28;20637;-64
2022/09/11 10:08:33;;;;;;;5.80;5.20;;;37.00;58.60;;;45.37;19.03;100945.97;5013388;28;20682;-65
2022/09/11 10:11:02;;;;;;;5.80;5.30;;;38.00;57.10;;;45.76;18.39;100939.22;5011173;28;20720;-64
2022/09/11 10:13:40;;;;;;;6.03;5.53;;;38.30;55.50;;;46.49;18.19;100932.00;5010894;28;21208;-65
2022/09/11 10:16:26;;;;;;;5.20;4.70;;;38.70;54.30;;;48.07;16.77;100939.69;5011202;28;20609;-66
2022/09/11 10:18:54;;;;;;;5.03;4.63;;;39.80;53.60;;;48.57;16.53;100932.72;5010722;28;21286;-66
2022/09/11 10:21:24;;;;;;;5.47;4.97;;;40.30;52.20;;;48.47;16.41;100928.56;5010846;28;20621;-65
2022/09/11 10:23:55;;;;;;;5.40;5.10;;;40.50;51.60;;;47.99;16.58;100928.78;5008313;28;20642;-66
2022/09/11 10:26:34;;;;;;;4.33;4.00;;;40.40;50.90;;;46.96;17.60;100921.34;4995142;28;20626;-66
2022/09/11 10:29:18;;;;;;;5.87;5.50;;;40.10;51.10;;;44.70;19.32;100912.16;4997803;28;21083;-67
2022/09/11 10:31:53;;;;;;;5.17;4.77;;;39.50;51.30;;;43.23;21.01;100913.44;4994523;28;20677;-67
2022/09/11 10:34:24;;;;;;;6.67;5.37;;;38.30;52.90;;;41.07;22.71;100911.50;5002536;28;20719;-67
2022/09/11 10:37:14;;;;;;;5.67;5.17;;;37.10;53.40;;;39.18;24.25;100901.53;5010655;28;20625;-67
2022/09/11 10:39:46;;;;;;;5.30;4.80;;;35.70;54.30;;;37.15;27.16;100898.03;5010481;28;20788;-64
2022/09/11 10:42:23;;;;;;;7.23;6.17;;;34.20;56.40;;;35.62;29.03;100884.03;5003831;28;20637;-64